sensor_id;sensor_type;location;lat;lon;timestamp;pressure;altitude;pressure_sealevel;temperature;humidity
62055;BME280;48653;51.742;-1.256;2023-11-22T00:03:47;102450.24;;;6.68;49.97
62055;BME280;48653;51.742;-1.256;2023-11-22T00:06:11;102444.49;;;8.18;49.15
62055;BME280;48653;51.742;-1.256;2023-11-22T00:08:37;102447.44;;;8.08;50.10
62055;BME280;48653;51.742;-1.256;2023-11-22T00:11:02;102444.49;;;7.71;50.98
62055;BME280;48653;51.742;-1.256;2023-11-22T00:13:27;102443.04;;;8.31;50.26
62055;BME280;48653;51.742;-1.256;2023-11-22T00:15:53;102442.59;;;8.32;49.95
62055;BME280;48653;51.742;-1.256;2023-11-22T00:18:19;102447.93;;;8.16;50.42
62055;BME280;48653;51.742;-1.256;2023-11-22T00:20:44;102452.38;;;8.10;50.46
62055;BME280;48653;51.742;-1.256;2023-11-22T00:23:09;102450.82;;;7.60;50.71
62055;BME280;48653;51.742;-1.256;2023-11-22T00:25:34;102447.61;;;7.48;51.81
62055;BME280;48653;51.742;-1.256;2023-11-22T00:27:59;102448.58;;;8.05;50.96
62055;BME280;48653;51.742;-1.256;2023-11-22T00:30:25;102444.95;;;7.92;50.73
62055;BME280;48653;51.742;-1.256;2023-11-22T00:32:50;102441.65;;;8.09;50.51
62055;BME280;48653;51.742;-1.256;2023-11-22T00:35:15;102442.61;;;8.00;50.49
62055;BME280;48653;51.742;-1.256;2023-11-22T00:37:40;102441.55;;;7.88;50.73
62055;BME280;48653;51.742;-1.256;2023-11-22T00:40:07;102442.90;;;7.64;51.06
62055;BME280;48653;51.742;-1.256;2023-11-22T00:42:31;102439.84;;;7.65;50.86
62055;BME280;48653;51.742;-1.256;2023-11-22T00:44:56;102442.63;;;8.04;50.57
62055;BME280;48653;51.742;-1.256;2023-11-22T00:47:22;102441.07;;;7.80;50.42
62055;BME280;48653;51.742;-1.256;2023-11-22T00:49:47;102444.30;;;8.07;50.78
62055;BME280;48653;51.742;-1.256;2023-11-22T00:52:13;102449.79;;;8.31;50.07
62055;BME280;48653;51.742;-1.256;2023-11-22T00:54:38;102449.41;;;7.32;52.20
62055;BME280;48653;51.742;-1.256;2023-11-22T00:57:04;102439.22;;;7.61;51.53
62055;BME280;48653;51.742;-1.256;2023-11-22T00:59:29;102437.77;;;7.71;51.55
62055;BME280;48653;51.742;-1.256;2023-11-22T01:01:55;102443.60;;;7.98;50.91
62055;BME280;48653;51.742;-1.256;2023-11-22T01:04:20;102449.88;;;7.36;51.72
62055;BME280;48653;51.742;-1.256;2023-11-22T01:06:45;102451.61;;;7.71;51.35
62055;BME280;48653;51.742;-1.256;2023-11-22T01:09:11;102452.64;;;7.68;51.60
62055;BME280;48653;51.742;-1.256;2023-11-22T01:11:38;102453.25;;;7.77;51.37
62055;BME280;48653;51.742;-1.256;2023-11-22T01:14:02;102457.77;;;7.74;51.31
62055;BME280;48653;51.742;-1.256;2023-11-22T01:16:27;102455.54;;;7.97;51.19
62055;BME280;48653;51.742;-1.256;2023-11-22T01:18:52;102454.72;;;8.02;51.14
62055;BME280;48653;51.742;-1.256;2023-11-22T01:21:17;102450.58;;;7.75;51.25
62055;BME280;48653;51.742;-1.256;2023-11-22T01:23:42;102441.02;;;8.10;51.03
62055;BME280;48653;51.742;-1.256;2023-11-22T01:26:08;102439.21;;;7.79;51.42
62055;BME280;48653;51.742;-1.256;2023-11-22T01:28:34;102440.29;;;8.00;51.00
62055;BME280;48653;51.742;-1.256;2023-11-22T01:30:59;102438.10;;;7.94;50.72
62055;BME280;48653;51.742;-1.256;2023-11-22T01:33:25;102438.89;;;7.68;51.08
62055;BME280;48653;51.742;-1.256;2023-11-22T01:35:50;102440.81;;;7.65;51.44
62055;BME280;48653;51.742;-1.256;2023-11-22T01:38:16;102432.48;;;7.70;51.04
62055;BME280;48653;51.742;-1.256;2023-11-22T01:40:44;102438.17;;;7.85;50.60
62055;BME280;48653;51.742;-1.256;2023-11-22T01:43:06;102445.69;;;8.03;50.64
62055;BME280;48653;51.742;-1.256;2023-11-22T01:45:31;102439.58;;;7.93;50.43
62055;BME280;48653;51.742;-1.256;2023-11-22T01:47:57;102428.30;;;7.94;50.84
62055;BME280;48653;51.742;-1.256;2023-11-22T01:50:22;102427.58;;;7.57;50.66
62055;BME280;48653;51.742;-1.256;2023-11-22T01:52:48;102434.21;;;7.89;50.65
62055;BME280;48653;51.742;-1.256;2023-11-22T01:55:13;102435.73;;;7.91;50.77
62055;BME280;48653;51.742;-1.256;2023-11-22T01:57:38;102428.64;;;7.95;50.77
62055;BME280;48653;51.742;-1.256;2023-11-22T02:00:05;102429.01;;;7.58;51.02
62055;BME280;48653;51.742;-1.256;2023-11-22T02:02:29;102434.44;;;7.46;51.41
62055;BME280;48653;51.742;-1.256;2023-11-22T02:04:54;102437.47;;;7.97;50.94
62055;BME280;48653;51.742;-1.256;2023-11-22T02:07:19;102436.48;;;7.83;51.15
62055;BME280;48653;51.742;-1.256;2023-11-22T02:09:44;102437.43;;;7.94;50.96
62055;BME280;48653;51.742;-1.256;2023-11-22T02:12:10;102438.72;;;8.00;50.80
62055;BME280;48653;51.742;-1.256;2023-11-22T02:14:35;102434.38;;;7.93;51.10
62055;BME280;48653;51.742;-1.256;2023-11-22T02:17:01;102436.12;;;7.76;50.80
62055;BME280;48653;51.742;-1.256;2023-11-22T02:19:25;102433.32;;;7.43;51.15
62055;BME280;48653;51.742;-1.256;2023-11-22T02:21:51;102439.96;;;7.81;50.98
62055;BME280;48653;51.742;-1.256;2023-11-22T02:24:16;102438.84;;;8.10;51.00
62055;BME280;48653;51.742;-1.256;2023-11-22T02:26:44;102441.71;;;8.02;51.20
62055;BME280;48653;51.742;-1.256;2023-11-22T02:29:07;102450.77;;;8.11;51.22
62055;BME280;48653;51.742;-1.256;2023-11-22T02:31:32;102454.99;;;7.77;51.36
62055;BME280;48653;51.742;-1.256;2023-11-22T02:33:58;102454.08;;;7.67;51.56
62055;BME280;48653;51.742;-1.256;2023-11-22T02:36:23;102448.99;;;8.08;51.36
62055;BME280;48653;51.742;-1.256;2023-11-22T02:38:48;102443.80;;;8.01;51.37
62055;BME280;48653;51.742;-1.256;2023-11-22T02:41:14;102435.50;;;7.98;51.13
62055;BME280;48653;51.742;-1.256;2023-11-22T02:43:40;102433.11;;;7.61;50.99
62055;BME280;48653;51.742;-1.256;2023-11-22T02:46:05;102430.88;;;8.16;50.30
62055;BME280;48653;51.742;-1.256;2023-11-22T02:48:31;102432.90;;;8.11;49.70
62055;BME280;48653;51.742;-1.256;2023-11-22T02:50:57;102436.50;;;7.69;50.16
62055;BME280;48653;51.742;-1.256;2023-11-22T02:53:22;102426.74;;;8.16;49.64
62055;BME280;48653;51.742;-1.256;2023-11-22T02:55:47;102429.77;;;8.43;49.49
62055;BME280;48653;51.742;-1.256;2023-11-22T02:58:13;102422.56;;;8.06;49.82
62055;BME280;48653;51.742;-1.256;2023-11-22T03:00:39;102418.58;;;7.77;49.60
62055;BME280;48653;51.742;-1.256;2023-11-22T03:03:03;102418.73;;;7.33;50.61
62055;BME280;48653;51.742;-1.256;2023-11-22T03:05:28;102420.75;;;7.79;49.83
62055;BME280;48653;51.742;-1.256;2023-11-22T03:07:53;102417.58;;;8.23;49.67
62055;BME280;48653;51.742;-1.256;2023-11-22T03:10:19;102411.18;;;7.87;49.78
62055;BME280;48653;51.742;-1.256;2023-11-22T03:12:44;102416.02;;;8.13;49.60
62055;BME280;48653;51.742;-1.256;2023-11-22T03:15:10;102423.96;;;8.52;49.33
62055;BME280;48653;51.742;-1.256;2023-11-22T03:17:35;102422.87;;;8.18;49.59
62055;BME280;48653;51.742;-1.256;2023-11-22T03:20:00;102420.50;;;8.29;49.43
62055;BME280;48653;51.742;-1.256;2023-11-22T03:22:26;102425.77;;;8.36;49.08
62055;BME280;48653;51.742;-1.256;2023-11-22T03:24:51;102426.22;;;8.10;49.15
62055;BME280;48653;51.742;-1.256;2023-11-22T03:27:16;102425.03;;;7.88;49.75
62055;BME280;48653;51.742;-1.256;2023-11-22T03:29:42;102419.62;;;7.92;49.68
62055;BME280;48653;51.742;-1.256;2023-11-22T03:32:07;102419.18;;;8.35;49.73
62055;BME280;48653;51.742;-1.256;2023-11-22T03:34:32;102425.83;;;8.31;49.42
62055;BME280;48653;51.742;-1.256;2023-11-22T03:36:58;102438.11;;;8.18;50.32
62055;BME280;48653;51.742;-1.256;2023-11-22T03:39:23;102442.72;;;8.03;50.12
62055;BME280;48653;51.742;-1.256;2023-11-22T03:41:48;102445.44;;;7.81;50.63
62055;BME280;48653;51.742;-1.256;2023-11-22T03:44:14;102445.56;;;7.74;50.08
62055;BME280;48653;51.742;-1.256;2023-11-22T03:46:39;102448.37;;;7.91;49.87
62055;BME280;48653;51.742;-1.256;2023-11-22T03:49:05;102445.20;;;7.89;49.84
62055;BME280;48653;51.742;-1.256;2023-11-22T03:51:30;102447.21;;;8.05;49.58
62055;BME280;48653;51.742;-1.256;2023-11-22T03:53:55;102440.09;;;8.36;48.77
62055;BME280;48653;51.742;-1.256;2023-11-22T03:56:21;102433.97;;;8.22;49.59
62055;BME280;48653;51.742;-1.256;2023-11-22T03:58:47;102434.48;;;7.62;50.06
62055;BME280;48653;51.742;-1.256;2023-11-22T04:01:12;102439.62;;;7.74;49.55
62055;BME280;48653;51.742;-1.256;2023-11-22T04:03:37;102445.78;;;7.72;49.79
62055;BME280;48653;51.742;-1.256;2023-11-22T04:06:02;102434.06;;;7.95;49.11
62055;BME280;48653;51.742;-1.256;2023-11-22T04:08:28;102426.38;;;7.77;49.39
62055;BME280;48653;51.742;-1.256;2023-11-22T04:10:53;102423.24;;;7.79;50.14
62055;BME280;48653;51.742;-1.256;2023-11-22T04:13:19;102425.65;;;7.90;49.72
62055;BME280;48653;51.742;-1.256;2023-11-22T04:15:45;102422.30;;;7.84;49.53
62055;BME280;48653;51.742;-1.256;2023-11-22T04:18:10;102424.95;;;8.01;49.58
62055;BME280;48653;51.742;-1.256;2023-11-22T04:20:35;102428.63;;;7.93;49.46
62055;BME280;48653;51.742;-1.256;2023-11-22T04:23:01;102434.99;;;8.16;49.54
62055;BME280;48653;51.742;-1.256;2023-11-22T04:25:26;102433.70;;;8.01;49.59
62055;BME280;48653;51.742;-1.256;2023-11-22T04:27:51;102429.75;;;7.29;50.51
62055;BME280;48653;51.742;-1.256;2023-11-22T04:30:17;102427.16;;;7.19;50.99
62055;BME280;48653;51.742;-1.256;2023-11-22T04:32:42;102423.74;;;7.64;51.02
62055;BME280;48653;51.742;-1.256;2023-11-22T04:35:08;102425.23;;;7.93;50.26
62055;BME280;48653;51.742;-1.256;2023-11-22T04:37:33;102432.06;;;7.70;51.01
62055;BME280;48653;51.742;-1.256;2023-11-22T04:40:00;102433.06;;;7.51;51.31
62055;BME280;48653;51.742;-1.256;2023-11-22T04:42:24;102433.69;;;7.81;51.14
62055;BME280;48653;51.742;-1.256;2023-11-22T04:44:50;102429.64;;;7.82;50.57
62055;BME280;48653;51.742;-1.256;2023-11-22T04:47:15;102431.90;;;7.41;50.77
62055;BME280;48653;51.742;-1.256;2023-11-22T04:49:41;102428.07;;;7.91;49.86
62055;BME280;48653;51.742;-1.256;2023-11-22T04:52:06;102427.65;;;7.73;50.37
62055;BME280;48653;51.742;-1.256;2023-11-22T04:54:32;102424.05;;;7.73;50.16
62055;BME280;48653;51.742;-1.256;2023-11-22T04:56:58;102419.08;;;7.39;50.52
62055;BME280;48653;51.742;-1.256;2023-11-22T04:59:23;102413.80;;;6.96;51.31
62055;BME280;48653;51.742;-1.256;2023-11-22T05:01:49;102417.54;;;7.32;50.59
62055;BME280;48653;51.742;-1.256;2023-11-22T05:04:14;102421.79;;;7.95;49.59
62055;BME280;48653;51.742;-1.256;2023-11-22T05:06:39;102422.41;;;7.45;50.34
62055;BME280;48653;51.742;-1.256;2023-11-22T05:09:04;102430.00;;;7.46;50.28
62055;BME280;48653;51.742;-1.256;2023-11-22T05:11:29;102421.77;;;7.72;49.79
62055;BME280;48653;51.742;-1.256;2023-11-22T05:13:55;102415.96;;;7.48;49.76
62055;BME280;48653;51.742;-1.256;2023-11-22T05:16:20;102417.37;;;7.58;49.93
62055;BME280;48653;51.742;-1.256;2023-11-22T05:18:45;102422.47;;;7.85;49.59
62055;BME280;48653;51.742;-1.256;2023-11-22T05:21:11;102424.98;;;7.67;49.71
62055;BME280;48653;51.742;-1.256;2023-11-22T05:23:36;102426.16;;;7.52;49.83
62055;BME280;48653;51.742;-1.256;2023-11-22T05:26:01;102428.66;;;7.65;49.59
62055;BME280;48653;51.742;-1.256;2023-11-22T05:28:26;102426.37;;;7.36;50.02
62055;BME280;48653;51.742;-1.256;2023-11-22T05:30:52;102425.79;;;7.78;49.73
62055;BME280;48653;51.742;-1.256;2023-11-22T05:33:18;102420.95;;;8.12;49.65
62055;BME280;48653;51.742;-1.256;2023-11-22T05:35:43;102410.41;;;7.73;50.87
62055;BME280;48653;51.742;-1.256;2023-11-22T05:38:09;102398.15;;;7.80;50.62
62055;BME280;48653;51.742;-1.256;2023-11-22T05:40:34;102406.11;;;7.78;51.11
62055;BME280;48653;51.742;-1.256;2023-11-22T05:42:59;102409.45;;;7.65;50.96
62055;BME280;48653;51.742;-1.256;2023-11-22T05:45:24;102401.49;;;7.71;51.01
62055;BME280;48653;51.742;-1.256;2023-11-22T05:47:49;102402.32;;;7.50;51.46
62055;BME280;48653;51.742;-1.256;2023-11-22T05:50:15;102409.06;;;7.42;51.41
62055;BME280;48653;51.742;-1.256;2023-11-22T05:52:40;102416.05;;;7.55;51.48
62055;BME280;48653;51.742;-1.256;2023-11-22T05:55:07;102420.27;;;7.39;51.66
62055;BME280;48653;51.742;-1.256;2023-11-22T05:57:31;102412.86;;;7.72;51.17
62055;BME280;48653;51.742;-1.256;2023-11-22T05:59:56;102405.08;;;7.70;51.44
62055;BME280;48653;51.742;-1.256;2023-11-22T06:02:21;102394.54;;;7.15;51.87
62055;BME280;48653;51.742;-1.256;2023-11-22T06:04:47;102386.71;;;7.35;52.14
62055;BME280;48653;51.742;-1.256;2023-11-22T06:07:13;102378.94;;;7.56;51.78
62055;BME280;48653;51.742;-1.256;2023-11-22T06:09:38;102377.86;;;7.74;51.39
62055;BME280;48653;51.742;-1.256;2023-11-22T06:12:04;102381.58;;;7.43;51.58
62055;BME280;48653;51.742;-1.256;2023-11-22T06:14:29;102387.23;;;7.44;51.60
62055;BME280;48653;51.742;-1.256;2023-11-22T06:16:54;102393.89;;;7.04;52.71
62055;BME280;48653;51.742;-1.256;2023-11-22T06:19:20;102393.53;;;7.63;51.66
62055;BME280;48653;51.742;-1.256;2023-11-22T06:21:45;102400.21;;;7.45;51.83
62055;BME280;48653;51.742;-1.256;2023-11-22T06:24:11;102415.25;;;7.35;52.23
62055;BME280;48653;51.742;-1.256;2023-11-22T06:26:36;102415.73;;;7.56;51.76
62055;BME280;48653;51.742;-1.256;2023-11-22T06:29:01;102419.85;;;7.58;51.64
62055;BME280;48653;51.742;-1.256;2023-11-22T06:31:27;102422.60;;;7.52;51.51
62055;BME280;48653;51.742;-1.256;2023-11-22T06:33:52;102417.32;;;7.73;51.32
62055;BME280;48653;51.742;-1.256;2023-11-22T06:36:17;102424.42;;;7.21;51.28
62055;BME280;48653;51.742;-1.256;2023-11-22T06:38:42;102416.40;;;7.68;50.87
62055;BME280;48653;51.742;-1.256;2023-11-22T06:41:08;102410.47;;;7.78;50.88
62055;BME280;48653;51.742;-1.256;2023-11-22T06:43:34;102411.69;;;7.83;50.62
62055;BME280;48653;51.742;-1.256;2023-11-22T06:45:59;102429.94;;;7.73;50.48
62055;BME280;48653;51.742;-1.256;2023-11-22T06:48:24;102431.49;;;7.92;50.21
62055;BME280;48653;51.742;-1.256;2023-11-22T06:50:49;102434.36;;;8.20;49.75
62055;BME280;48653;51.742;-1.256;2023-11-22T06:53:15;102427.82;;;7.85;49.94
62055;BME280;48653;51.742;-1.256;2023-11-22T06:55:41;102418.94;;;8.57;49.65
62055;BME280;48653;51.742;-1.256;2023-11-22T06:58:06;102404.92;;;8.06;49.57
62055;BME280;48653;51.742;-1.256;2023-11-22T07:00:31;102393.19;;;8.07;50.14
62055;BME280;48653;51.742;-1.256;2023-11-22T07:02:57;102403.11;;;7.42;51.36
62055;BME280;48653;51.742;-1.256;2023-11-22T07:05:22;102410.59;;;7.59;51.18
62055;BME280;48653;51.742;-1.256;2023-11-22T07:07:48;102408.82;;;7.92;50.51
62055;BME280;48653;51.742;-1.256;2023-11-22T07:10:14;102421.15;;;8.05;50.23
62055;BME280;48653;51.742;-1.256;2023-11-22T07:12:40;102428.84;;;7.33;51.46
62055;BME280;48653;51.742;-1.256;2023-11-22T07:15:06;102428.96;;;7.48;51.44
62055;BME280;48653;51.742;-1.256;2023-11-22T07:17:33;102425.05;;;7.47;51.28
62055;BME280;48653;51.742;-1.256;2023-11-22T07:19:56;102435.22;;;6.82;52.72
62055;BME280;48653;51.742;-1.256;2023-11-22T07:22:22;102442.47;;;7.17;51.75
62055;BME280;48653;51.742;-1.256;2023-11-22T07:24:49;102445.71;;;7.65;51.30
62055;BME280;48653;51.742;-1.256;2023-11-22T07:27:13;102451.23;;;7.76;51.17
62055;BME280;48653;51.742;-1.256;2023-11-22T07:29:40;102445.25;;;7.82;51.07
62055;BME280;48653;51.742;-1.256;2023-11-22T07:32:04;102443.16;;;7.78;50.82
62055;BME280;48653;51.742;-1.256;2023-11-22T07:34:29;102454.43;;;7.30;52.79
62055;BME280;48653;51.742;-1.256;2023-11-22T07:36:54;102449.79;;;7.54;51.99
62055;BME280;48653;51.742;-1.256;2023-11-22T07:39:20;102457.56;;;7.64;52.43
62055;BME280;48653;51.742;-1.256;2023-11-22T07:41:46;102448.82;;;7.48;52.73
62055;BME280;48653;51.742;-1.256;2023-11-22T07:44:11;102440.53;;;7.33;52.61
62055;BME280;48653;51.742;-1.256;2023-11-22T07:46:36;102448.15;;;7.86;51.93
62055;BME280;48653;51.742;-1.256;2023-11-22T07:49:02;102457.98;;;7.64;52.45
62055;BME280;48653;51.742;-1.256;2023-11-22T07:51:28;102466.20;;;7.15;53.07
62055;BME280;48653;51.742;-1.256;2023-11-22T07:53:53;102466.75;;;7.98;51.70
62055;BME280;48653;51.742;-1.256;2023-11-22T07:56:19;102451.68;;;8.30;51.56
62055;BME280;48653;51.742;-1.256;2023-11-22T07:58:45;102444.51;;;8.36;50.50
62055;BME280;48653;51.742;-1.256;2023-11-22T08:01:10;102438.38;;;7.82;51.85
62055;BME280;48653;51.742;-1.256;2023-11-22T08:03:36;102439.04;;;7.97;51.98
62055;BME280;48653;51.742;-1.256;2023-11-22T08:06:01;102441.53;;;7.95;51.68
62055;BME280;48653;51.742;-1.256;2023-11-22T08:08:26;102441.90;;;8.20;51.72
62055;BME280;48653;51.742;-1.256;2023-11-22T08:10:51;102437.24;;;7.71;52.61
62055;BME280;48653;51.742;-1.256;2023-11-22T08:13:17;102441.74;;;8.47;51.38
62055;BME280;48653;51.742;-1.256;2023-11-22T08:15:42;102440.58;;;8.69;51.10
62055;BME280;48653;51.742;-1.256;2023-11-22T08:18:08;102450.13;;;8.08;51.43
62055;BME280;48653;51.742;-1.256;2023-11-22T08:20:34;102445.07;;;7.67;51.48
62055;BME280;48653;51.742;-1.256;2023-11-22T08:22:59;102435.13;;;8.60;50.28
62055;BME280;48653;51.742;-1.256;2023-11-22T08:25:23;102436.82;;;8.80;49.85
62055;BME280;48653;51.742;-1.256;2023-11-22T08:27:49;102441.47;;;6.85;53.16
62055;BME280;48653;51.742;-1.256;2023-11-22T08:30:14;102439.77;;;7.71;51.96
62055;BME280;48653;51.742;-1.256;2023-11-22T08:32:40;102434.65;;;8.02;51.47
62055;BME280;48653;51.742;-1.256;2023-11-22T08:35:05;102429.82;;;8.48;51.56
62055;BME280;48653;51.742;-1.256;2023-11-22T08:37:30;102432.02;;;8.05;52.55
62055;BME280;48653;51.742;-1.256;2023-11-22T08:39:55;102433.68;;;7.88;52.25
62055;BME280;48653;51.742;-1.256;2023-11-22T08:42:20;102427.17;;;7.84;52.33
62055;BME280;48653;51.742;-1.256;2023-11-22T08:44:45;102420.42;;;7.99;51.54
62055;BME280;48653;51.742;-1.256;2023-11-22T08:47:11;102417.45;;;8.54;50.75
62055;BME280;48653;51.742;-1.256;2023-11-22T08:49:36;102414.73;;;8.01;50.80
62055;BME280;48653;51.742;-1.256;2023-11-22T08:52:02;102413.54;;;8.25;50.45
62055;BME280;48653;51.742;-1.256;2023-11-22T08:54:28;102407.60;;;7.77;51.55
62055;BME280;48653;51.742;-1.256;2023-11-22T08:56:53;102397.09;;;7.73;52.03
62055;BME280;48653;51.742;-1.256;2023-11-22T08:59:19;102402.58;;;8.03;51.90
62055;BME280;48653;51.742;-1.256;2023-11-22T09:01:44;102406.63;;;8.16;51.23
62055;BME280;48653;51.742;-1.256;2023-11-22T09:04:10;102410.97;;;8.21;50.56
62055;BME280;48653;51.742;-1.256;2023-11-22T09:06:35;102412.10;;;7.94;50.77
62055;BME280;48653;51.742;-1.256;2023-11-22T09:09:00;102406.90;;;8.30;50.27
62055;BME280;48653;51.742;-1.256;2023-11-22T09:11:26;102400.74;;;8.84;49.35
62055;BME280;48653;51.742;-1.256;2023-11-22T09:13:51;102387.66;;;8.48;49.21
62055;BME280;48653;51.742;-1.256;2023-11-22T09:16:17;102378.85;;;8.17;50.38
62055;BME280;48653;51.742;-1.256;2023-11-22T09:18:42;102380.86;;;8.98;49.42
62055;BME280;48653;51.742;-1.256;2023-11-22T09:21:08;102386.75;;;9.28;48.20
62055;BME280;48653;51.742;-1.256;2023-11-22T09:23:33;102380.57;;;8.81;49.52
62055;BME280;48653;51.742;-1.256;2023-11-22T09:25:59;102376.57;;;8.40;50.47
62055;BME280;48653;51.742;-1.256;2023-11-22T09:28:26;102381.42;;;8.30;50.31
62055;BME280;48653;51.742;-1.256;2023-11-22T09:30:50;102397.67;;;8.82;50.24
62055;BME280;48653;51.742;-1.256;2023-11-22T09:33:16;102404.05;;;8.75;51.43
62055;BME280;48653;51.742;-1.256;2023-11-22T09:35:42;102403.12;;;9.01;50.22
62055;BME280;48653;51.742;-1.256;2023-11-22T09:38:07;102396.77;;;8.78;50.32
62055;BME280;48653;51.742;-1.256;2023-11-22T09:40:32;102397.29;;;9.25;50.19
62055;BME280;48653;51.742;-1.256;2023-11-22T09:42:57;102399.18;;;8.78;50.59
62055;BME280;48653;51.742;-1.256;2023-11-22T09:45:22;102398.32;;;8.66;50.94
62055;BME280;48653;51.742;-1.256;2023-11-22T09:47:48;102399.21;;;8.69;50.58
62055;BME280;48653;51.742;-1.256;2023-11-22T09:50:19;102393.66;;;8.94;50.64
62055;BME280;48653;51.742;-1.256;2023-11-22T09:52:41;102391.83;;;8.20;52.05
62055;BME280;48653;51.742;-1.256;2023-11-22T09:55:05;102393.36;;;8.42;50.52
62055;BME280;48653;51.742;-1.256;2023-11-22T09:57:30;102392.96;;;8.77;50.36
62055;BME280;48653;51.742;-1.256;2023-11-22T09:59:57;102400.51;;;9.00;49.45
62055;BME280;48653;51.742;-1.256;2023-11-22T10:02:21;102406.54;;;8.96;50.44
62055;BME280;48653;51.742;-1.256;2023-11-22T10:04:46;102410.90;;;8.47;50.47
62055;BME280;48653;51.742;-1.256;2023-11-22T10:07:11;102407.65;;;8.93;49.85
62055;BME280;48653;51.742;-1.256;2023-11-22T10:09:37;102418.37;;;9.32;49.70
62055;BME280;48653;51.742;-1.256;2023-11-22T10:12:03;102421.89;;;8.31;51.28
62055;BME280;48653;51.742;-1.256;2023-11-22T10:14:27;102412.53;;;9.13;50.05
62055;BME280;48653;51.742;-1.256;2023-11-22T10:16:58;102407.61;;;8.42;50.63
62055;BME280;48653;51.742;-1.256;2023-11-22T10:19:18;102404.93;;;8.69;50.62
62055;BME280;48653;51.742;-1.256;2023-11-22T10:21:43;102409.33;;;9.11;50.31
62055;BME280;48653;51.742;-1.256;2023-11-22T10:24:08;102418.40;;;9.15;49.49
62055;BME280;48653;51.742;-1.256;2023-11-22T10:26:33;102423.79;;;8.84;50.05
62055;BME280;48653;51.742;-1.256;2023-11-22T10:29:00;102422.28;;;9.69;48.75
62055;BME280;48653;51.742;-1.256;2023-11-22T10:31:24;102422.63;;;9.38;49.85
62055;BME280;48653;51.742;-1.256;2023-11-22T10:33:50;102428.49;;;9.48;49.52
62055;BME280;48653;51.742;-1.256;2023-11-22T10:36:15;102419.36;;;8.76;50.84
62055;BME280;48653;51.742;-1.256;2023-11-22T10:38:41;102406.28;;;9.42;50.28
62055;BME280;48653;51.742;-1.256;2023-11-22T10:41:07;102407.97;;;8.85;51.73
62055;BME280;48653;51.742;-1.256;2023-11-22T10:43:31;102407.08;;;9.08;51.33
62055;BME280;48653;51.742;-1.256;2023-11-22T10:45:57;102393.16;;;8.94;50.88
62055;BME280;48653;51.742;-1.256;2023-11-22T10:48:22;102387.33;;;9.28;51.58
62055;BME280;48653;51.742;-1.256;2023-11-22T10:50:47;102393.81;;;8.90;51.73
62055;BME280;48653;51.742;-1.256;2023-11-22T10:53:16;102397.23;;;8.71;52.32
62055;BME280;48653;51.742;-1.256;2023-11-22T10:55:41;102398.39;;;8.78;52.22
62055;BME280;48653;51.742;-1.256;2023-11-22T10:58:03;102396.30;;;8.62;52.11
62055;BME280;48653;51.742;-1.256;2023-11-22T11:00:29;102393.29;;;9.15;51.44
62055;BME280;48653;51.742;-1.256;2023-11-22T11:02:57;102384.80;;;9.42;50.91
62055;BME280;48653;51.742;-1.256;2023-11-22T11:05:21;102381.36;;;9.80;50.53
62055;BME280;48653;51.742;-1.256;2023-11-22T11:07:49;102372.14;;;9.33;50.80
62055;BME280;48653;51.742;-1.256;2023-11-22T11:10:10;102360.09;;;9.61;50.73
62055;BME280;48653;51.742;-1.256;2023-11-22T11:12:36;102352.61;;;9.36;50.81
62055;BME280;48653;51.742;-1.256;2023-11-22T11:15:01;102343.72;;;9.90;50.07
62055;BME280;48653;51.742;-1.256;2023-11-22T11:17:26;102337.80;;;9.41;51.40
62055;BME280;48653;51.742;-1.256;2023-11-22T11:19:50;102333.83;;;9.54;50.90
62055;BME280;48653;51.742;-1.256;2023-11-22T11:22:17;102336.54;;;9.74;50.52
62055;BME280;48653;51.742;-1.256;2023-11-22T11:24:42;102330.90;;;9.33;50.51
62055;BME280;48653;51.742;-1.256;2023-11-22T11:27:07;102323.96;;;10.08;49.63
62055;BME280;48653;51.742;-1.256;2023-11-22T11:29:32;102317.52;;;10.18;49.31
62055;BME280;48653;51.742;-1.256;2023-11-22T11:31:57;102315.79;;;10.48;49.15
62055;BME280;48653;51.742;-1.256;2023-11-22T11:34:23;102298.30;;;10.27;50.47
62055;BME280;48653;51.742;-1.256;2023-11-22T11:36:52;102276.00;;;10.07;50.97
62055;BME280;48653;51.742;-1.256;2023-11-22T11:39:13;102260.98;;;10.32;50.95
62055;BME280;48653;51.742;-1.256;2023-11-22T11:41:37;102265.77;;;9.53;51.30
62055;BME280;48653;51.742;-1.256;2023-11-22T11:44:03;102285.77;;;10.73;49.81
62055;BME280;48653;51.742;-1.256;2023-11-22T11:46:29;102315.59;;;10.84;50.18
62055;BME280;48653;51.742;-1.256;2023-11-22T11:48:54;102334.68;;;9.95;51.13
62055;BME280;48653;51.742;-1.256;2023-11-22T11:51:19;102347.02;;;10.04;51.52
62055;BME280;48653;51.742;-1.256;2023-11-22T11:53:44;102354.42;;;10.21;51.41
62055;BME280;48653;51.742;-1.256;2023-11-22T11:56:09;102344.90;;;10.25;51.23
62055;BME280;48653;51.742;-1.256;2023-11-22T11:58:34;102320.78;;;9.91;52.08
62055;BME280;48653;51.742;-1.256;2023-11-22T12:00:59;102311.18;;;9.86;51.86
62055;BME280;48653;51.742;-1.256;2023-11-22T12:03:24;102305.62;;;9.51;52.73
62055;BME280;48653;51.742;-1.256;2023-11-22T12:05:49;102299.03;;;9.21;53.83
62055;BME280;48653;51.742;-1.256;2023-11-22T12:08:15;102279.38;;;9.78;52.88
62055;BME280;48653;51.742;-1.256;2023-11-22T12:10:40;102278.00;;;9.95;52.46
62055;BME280;48653;51.742;-1.256;2023-11-22T12:15:30;102271.40;;;10.02;52.50
62055;BME280;48653;51.742;-1.256;2023-11-22T12:17:55;102260.71;;;10.11;52.03
62055;BME280;48653;51.742;-1.256;2023-11-22T12:20:21;102258.01;;;9.77;53.20
62055;BME280;48653;51.742;-1.256;2023-11-22T12:22:45;102254.10;;;10.02;52.99
62055;BME280;48653;51.742;-1.256;2023-11-22T12:25:11;102244.94;;;9.85;52.69
62055;BME280;48653;51.742;-1.256;2023-11-22T12:27:39;102239.61;;;10.35;53.20
62055;BME280;48653;51.742;-1.256;2023-11-22T12:32:27;102231.94;;;10.24;52.93
62055;BME280;48653;51.742;-1.256;2023-11-22T12:34:52;102227.79;;;10.68;52.53
62055;BME280;48653;51.742;-1.256;2023-11-22T12:37:17;102217.67;;;10.33;52.85
62055;BME280;48653;51.742;-1.256;2023-11-22T12:39:42;102205.64;;;10.58;52.58
62055;BME280;48653;51.742;-1.256;2023-11-22T12:42:07;102204.94;;;10.12;53.48
62055;BME280;48653;51.742;-1.256;2023-11-22T12:46:58;102196.89;;;9.80;54.66
62055;BME280;48653;51.742;-1.256;2023-11-22T12:49:23;102193.08;;;9.83;54.21